createdAt,value
2022-10-26T00:01:25.594Z,13.40
2022-10-26T00:08:08.450Z,13.50
2022-10-26T00:14:50.751Z,13.20
2022-10-26T00:21:33.113Z,13.40
2022-10-26T00:28:15.425Z,13.40
2022-10-26T00:35:06.062Z,13.40
2022-10-26T00:41:58.456Z,13.50
2022-10-26T00:48:47.487Z,13.50
2022-10-26T00:55:37.313Z,13.50
2022-10-26T01:02:19.847Z,13.60
2022-10-26T01:09:04.542Z,13.70
2022-10-26T01:16:13.518Z,13.80
2022-10-26T01:23:13.360Z,13.80
2022-10-26T01:30:22.259Z,13.70
2022-10-26T01:37:12.573Z,13.60
2022-10-26T01:44:39.535Z,13.60
2022-10-26T01:51:23.606Z,13.70
2022-10-26T01:58:22.279Z,13.50
2022-10-26T02:05:16.647Z,13.50
2022-10-26T02:11:59.702Z,13.50
2022-10-26T02:19:26.801Z,13.50
2022-10-26T02:26:11.999Z,13.40
2022-10-26T02:32:57.659Z,13.40
2022-10-26T02:39:41.774Z,13.40
2022-10-26T02:46:26.826Z,13.40
2022-10-26T02:53:30.445Z,13.30
2022-10-26T03:00:15.968Z,13.30
2022-10-26T03:06:58.568Z,13.20
2022-10-26T03:13:41.004Z,13.30
2022-10-26T03:20:24.081Z,13.30
2022-10-26T03:27:06.401Z,13.20
2022-10-26T03:33:48.742Z,13.20
2022-10-26T03:40:31.078Z,13.30
2022-10-26T03:47:13.695Z,13.20
2022-10-26T03:53:56.467Z,13.20
2022-10-26T04:00:38.810Z,13.30
2022-10-26T04:07:21.175Z,13.40
2022-10-26T04:14:03.571Z,13.40
2022-10-26T04:20:45.904Z,13.50
2022-10-26T04:27:28.333Z,13.40
2022-10-26T04:34:11.467Z,13.40
2022-10-26T04:40:55.068Z,13.50
2022-10-26T04:47:37.474Z,13.60
2022-10-26T04:54:20.243Z,13.50
2022-10-26T05:01:03.176Z,13.60
2022-10-26T05:07:54.227Z,13.60
2022-10-26T05:14:36.557Z,13.70
2022-10-26T05:21:21.781Z,13.70
2022-10-26T05:28:06.456Z,13.70
2022-10-26T05:34:49.988Z,13.70
2022-10-26T05:41:32.358Z,13.70
2022-10-26T05:48:14.677Z,13.80
2022-10-26T05:54:57.087Z,13.80
2022-10-26T06:02:04.359Z,13.90
2022-10-26T06:08:47.187Z,14.00
2022-10-26T06:15:32.298Z,14.10
2022-10-26T06:22:47.793Z,14.10
2022-10-26T06:30:00.041Z,14.10
2022-10-26T06:36:43.270Z,14.20
2022-10-26T06:43:32.273Z,14.30
2022-10-26T06:50:17.602Z,14.40
2022-10-26T06:57:00.910Z,14.50
2022-10-26T07:04:03.514Z,14.50
2022-10-26T07:10:47.316Z,14.40
2022-10-26T07:17:30.458Z,14.30
2022-10-26T07:24:13.182Z,14.30
2022-10-26T07:30:58.071Z,14.40
2022-10-26T07:37:40.477Z,14.60
2022-10-26T07:44:22.791Z,14.50
2022-10-26T07:51:05.337Z,14.70
2022-10-26T07:57:50.979Z,14.80
2022-10-26T08:04:36.373Z,15.10
2022-10-26T08:11:18.989Z,15.30
2022-10-26T08:18:01.554Z,15.70
2022-10-26T08:24:46.837Z,16.10
2022-10-26T08:31:29.625Z,16.50
2022-10-26T08:38:11.992Z,16.80
2022-10-26T08:45:00.987Z,17.00
2022-10-26T08:51:43.784Z,17.10
2022-10-26T08:58:37.835Z,17.30
2022-10-26T09:05:38.736Z,17.30
2022-10-26T09:12:31.994Z,17.50
2022-10-26T09:19:56.111Z,18.00
2022-10-26T09:26:56.011Z,18.70
2022-10-26T09:33:40.443Z,19.40
2022-10-26T09:40:40.375Z,19.70
2022-10-26T09:47:30.201Z,21.20
2022-10-26T09:54:19.012Z,22.60
2022-10-26T10:01:01.390Z,24.60
2022-10-26T10:07:43.894Z,24.60
2022-10-26T10:14:27.939Z,23.60
2022-10-26T10:21:11.173Z,22.40
2022-10-26T10:27:54.476Z,21.50
2022-10-26T10:34:36.838Z,21.30
2022-10-26T10:41:21.608Z,22.10
2022-10-26T10:48:13.109Z,22.50
2022-10-26T10:55:18.120Z,22.60
2022-10-26T11:02:06.397Z,22.50
2022-10-26T11:08:57.272Z,21.90
2022-10-26T11:16:03.457Z,21.90
2022-10-26T11:22:52.139Z,22.40
2022-10-26T11:29:48.603Z,22.60
2022-10-26T11:36:33.221Z,22.80
2022-10-26T11:43:25.197Z,22.90
2022-10-26T11:50:17.928Z,23.30
2022-10-26T11:57:01.023Z,23.10
2022-10-26T12:03:47.249Z,23.30
2022-10-26T12:10:35.028Z,23.40
2022-10-26T12:17:46.081Z,23.50
2022-10-26T12:24:35.441Z,23.40
2022-10-26T12:31:35.898Z,23.50
2022-10-26T12:38:24.461Z,23.80
2022-10-26T12:45:20.263Z,23.60
2022-10-26T12:52:03.253Z,23.30
2022-10-26T12:59:05.455Z,23.50
2022-10-26T13:05:50.491Z,23.20
2022-10-26T13:13:03.155Z,22.60
2022-10-26T13:19:48.901Z,22.80
2022-10-26T13:26:32.427Z,22.80
2022-10-26T13:33:24.419Z,23.00
2022-10-26T13:40:07.563Z,22.90
2022-10-26T13:46:59.404Z,23.10
2022-10-26T13:53:49.044Z,23.10
2022-10-26T14:00:31.644Z,22.90
2022-10-26T14:07:22.692Z,22.80
2022-10-26T14:14:05.456Z,22.40
2022-10-26T14:21:01.289Z,22.10
2022-10-26T14:27:44.225Z,21.90
2022-10-26T14:34:26.945Z,21.80
2022-10-26T14:41:09.899Z,21.90
2022-10-26T14:47:55.687Z,21.80
2022-10-26T14:54:38.083Z,22.00
2022-10-26T15:01:25.070Z,21.90
2022-10-26T15:08:56.389Z,21.80
2022-10-26T15:15:39.979Z,21.60
2022-10-26T15:22:29.518Z,21.50
2022-10-26T15:29:36.024Z,21.30
2022-10-26T15:36:21.518Z,21.20
2022-10-26T15:43:11.499Z,20.90
2022-10-26T15:49:54.081Z,20.70
2022-10-26T15:56:36.859Z,20.40
2022-10-26T16:03:22.432Z,20.10
2022-10-26T16:10:05.518Z,19.70
2022-10-26T16:16:47.834Z,19.30
2022-10-26T16:23:30.307Z,18.90
2022-10-26T16:30:14.169Z,18.50
2022-10-26T16:36:56.484Z,18.10
2022-10-26T16:43:40.974Z,17.90
2022-10-26T16:50:24.160Z,17.60
2022-10-26T16:57:06.703Z,17.40
2022-10-26T17:03:50.896Z,17.40
2022-10-26T17:10:33.706Z,17.10
2022-10-26T17:17:16.138Z,16.90
2022-10-26T17:23:58.902Z,16.70
2022-10-26T17:30:41.503Z,16.60
2022-10-26T17:37:23.893Z,16.50
2022-10-26T17:44:06.225Z,16.40
2022-10-26T17:50:48.604Z,16.20
2022-10-26T17:57:39.931Z,16.00
2022-10-26T18:04:23.289Z,15.70
2022-10-26T18:11:10.617Z,15.50
2022-10-26T18:17:56.761Z,15.50
2022-10-26T18:24:42.171Z,15.50
2022-10-26T18:31:25.599Z,15.40
2022-10-26T18:38:07.885Z,15.30
2022-10-26T18:44:50.289Z,15.20
2022-10-26T18:51:37.521Z,15.10
2022-10-26T18:58:19.824Z,14.90
2022-10-26T19:05:02.129Z,14.90
2022-10-26T19:12:01.403Z,14.60
2022-10-26T19:18:46.152Z,14.40
2022-10-26T19:25:28.530Z,14.30
2022-10-26T19:32:12.247Z,14.20
2022-10-26T19:38:55.715Z,14.10
2022-10-26T19:45:38.443Z,14.20
2022-10-26T19:52:20.786Z,14.20
2022-10-26T19:59:03.338Z,14.30
2022-10-26T20:05:45.680Z,14.10
2022-10-26T20:12:28.376Z,14.10
2022-10-26T20:19:13.799Z,14.00
2022-10-26T20:25:58.233Z,13.80
2022-10-26T20:32:40.606Z,13.70
2022-10-26T20:39:23.324Z,13.60
2022-10-26T20:46:18.945Z,13.40
2022-10-26T20:53:26.062Z,13.40
2022-10-26T21:00:10.978Z,13.60
2022-10-26T21:06:53.311Z,13.50
2022-10-26T21:13:35.664Z,13.40
2022-10-26T21:20:18.040Z,13.30
2022-10-26T21:27:00.395Z,13.40
2022-10-26T21:33:43.495Z,13.30
2022-10-26T21:40:25.811Z,13.20
2022-10-26T21:47:08.510Z,13.20
2022-10-26T21:53:51.605Z,13.20
2022-10-26T22:00:33.981Z,13.10
2022-10-26T22:07:17.052Z,13.00
2022-10-26T22:14:03.108Z,12.90
2022-10-26T22:20:54.977Z,12.90
2022-10-26T22:27:37.299Z,12.90
2022-10-26T22:34:19.755Z,12.90
2022-10-26T22:41:02.330Z,12.80
2022-10-26T22:47:44.756Z,12.90
2022-10-26T22:54:27.105Z,12.80
2022-10-26T23:01:15.062Z,13.00
2022-10-26T23:07:57.811Z,12.70
2022-10-26T23:14:40.119Z,12.80
2022-10-26T23:28:07.451Z,12.50
2022-10-26T23:34:49.893Z,12.50
2022-10-26T23:41:32.460Z,12.50
2022-10-26T23:48:15.404Z,12.60
2022-10-26T23:54:57.739Z,12.70
